Donald — D5DR2 — position and weather

sailwx.info

Track history (hours):
 
Tides and Currents Weather Stations Pressure Air Temp Water Temp Dewpoint Dewpoint Depression Visibility Wind Speed Wind Dir Waves Ship Positions

Donald

Last reported at 2018-Jan-30 18:18 UTC. Time now 2018-Feb-18 23:58 UTC.
Position N 23°37' E 123°25'.
Warning: this ship's position is 19 days out of date.

Length 157 m; draft 5.7 m.

Type: Cargo ship. MMSI: 636018211.

Date/timePositionNaut miles runAvg speedWind from/ knotsBaromVisibWave heightAir tempDewpointWater temp
2018-Jan-30 18:18N 23°37' E 123°25'311.4
2018-Jan-30 18:00N 23°40' E 123°25'611.4
2018-Jan-30 17:31N 23°46' E 123°24'611.3
2018-Jan-30 17:01N 23°51' E 123°22'611.0
2018-Jan-30 16:30N 23°57' E 123°20'611.3
2018-Jan-30 16:01N 24°02' E 123°19'611.7
2018-Jan-30 15:30N 24°08' E 123°18'612.4
2018-Jan-30 15:01N 24°14' E 123°18'612.3
2018-Jan-30 14:30N 24°20' E 123°18'1212.1
2018-Jan-30 13:30N 24°32' E 123°17'611.9
2018-Jan-30 13:00N 24°38' E 123°17'611.8
2018-Jan-30 12:31N 24°44' E 123°17'611.5
2018-Jan-30 12:01N 24°50' E 123°16'611.5
2018-Jan-30 11:31N 24°56' E 123°16'1212.2
2018-Jan-30 10:30N 25°08' E 123°15'35412.7
2018-Jan-29 06:39N 30°59' E 122°31'214.2
2018-Jan-29 06:29N 30°60' E 122°28'714.6
2018-Jan-29 06:00N 31°02' E 122°20'713.3
2018-Jan-29 05:30N 31°03' E 122°12'510.8
2018-Jan-29 05:00N 31°04' E 122°06'5 9.4
2018-Jan-29 04:30N 31°05' E 122°01'5 9.9
2018-Jan-29 04:00N 31°07' E 121°56'612.2
2018-Jan-29 03:30N 31°11' E 121°50'  
2018-Jan-26 22:22N 31°17' E 121°45'410.7
2018-Jan-26 22:01N 31°14' E 121°47'612.1
2018-Jan-26 21:30N 31°10' E 121°52'611.8
2018-Jan-26 21:00N 31°06' E 121°58'510.8
2018-Jan-26 20:30N 31°04' E 122°04'5 9.1
2018-Jan-26 20:00N 31°03' E 122°09'611.2
2018-Jan-26 19:31N 31°03' E 122°16'5 9.0
2018-Jan-26 19:00N 31°02' E 122°21'4 8.7
2018-Jan-26 18:30N 31°01' E 122°26'  
2018-Jan-23 14:17N 24°19' E 118°46'410.4
2018-Jan-23 13:53N 24°17' E 118°43'810.1
2018-Jan-23 13:05N 24°11' E 118°37'110.1
2018-Jan-23 13:00N 24°10' E 118°36'510.3
2018-Jan-23 12:30N 24°07' E 118°32'510.3
2018-Jan-23 12:00N 24°04' E 118°27'510.3
2018-Jan-23 11:28N 24°00' E 118°23'4 9.8
2018-Jan-23 11:00N 23°57' E 118°19'  
Track history (hours):
 
Tides and Currents Weather Stations Pressure Air Temp Water Temp Dewpoint Dewpoint Depression Visibility Wind Speed Wind Dir Waves Ship Positions

Donald

Last reported at 2018-Jan-30 18:18 UTC. Time now 2018-Feb-18 23:58 UTC.
Position N 23°37' E 123°25'.
Warning: this ship's position is 19 days out of date.

Length 157 m; draft 5.7 m.

Type: Cargo ship. MMSI: 636018211.

Date/timePositionNaut miles runAvg speedWind from/ knotsBaromVisibWave heightAir tempDewpointWater temp
2018-Jan-30 18:18N 23°37' E 123°25'311.4
2018-Jan-30 18:00N 23°40' E 123°25'611.4
2018-Jan-30 17:31N 23°46' E 123°24'611.3
2018-Jan-30 17:01N 23°51' E 123°22'611.0
2018-Jan-30 16:30N 23°57' E 123°20'611.3
2018-Jan-30 16:01N 24°02' E 123°19'611.7
2018-Jan-30 15:30N 24°08' E 123°18'612.4
2018-Jan-30 15:01N 24°14' E 123°18'612.3
2018-Jan-30 14:30N 24°20' E 123°18'1212.1
2018-Jan-30 13:30N 24°32' E 123°17'611.9
2018-Jan-30 13:00N 24°38' E 123°17'611.8
2018-Jan-30 12:31N 24°44' E 123°17'611.5
2018-Jan-30 12:01N 24°50' E 123°16'611.5
2018-Jan-30 11:31N 24°56' E 123°16'1212.2
2018-Jan-30 10:30N 25°08' E 123°15'35412.7
2018-Jan-29 06:39N 30°59' E 122°31'214.2
2018-Jan-29 06:29N 30°60' E 122°28'714.6
2018-Jan-29 06:00N 31°02' E 122°20'713.3
2018-Jan-29 05:30N 31°03' E 122°12'510.8
2018-Jan-29 05:00N 31°04' E 122°06'5 9.4
2018-Jan-29 04:30N 31°05' E 122°01'5 9.9
2018-Jan-29 04:00N 31°07' E 121°56'612.2
2018-Jan-29 03:30N 31°11' E 121°50'  
2018-Jan-26 22:22N 31°17' E 121°45'410.7
2018-Jan-26 22:01N 31°14' E 121°47'612.1
2018-Jan-26 21:30N 31°10' E 121°52'611.8
2018-Jan-26 21:00N 31°06' E 121°58'510.8
2018-Jan-26 20:30N 31°04' E 122°04'5 9.1
2018-Jan-26 20:00N 31°03' E 122°09'611.2
2018-Jan-26 19:31N 31°03' E 122°16'5 9.0
2018-Jan-26 19:00N 31°02' E 122°21'4 8.7
2018-Jan-26 18:30N 31°01' E 122°26'  
2018-Jan-23 14:17N 24°19' E 118°46'410.4
2018-Jan-23 13:53N 24°17' E 118°43'810.1
2018-Jan-23 13:05N 24°11' E 118°37'110.1
2018-Jan-23 13:00N 24°10' E 118°36'510.3
2018-Jan-23 12:30N 24°07' E 118°32'510.3
2018-Jan-23 12:00N 24°04' E 118°27'510.3
2018-Jan-23 11:28N 24°00' E 118°23'4 9.8
2018-Jan-23 11:00N 23°57' E 118°19'  

Dump ship's entire track history